sensor_id;sensor_type;location;lat;lon;timestamp;P1;durP1;ratioP1;P2;durP2;ratioP2
16662;SDS011;8445;51.270;9.434;2022-12-07T00:01:09;12.87;;;9.47;;
16662;SDS011;8445;51.270;9.434;2022-12-07T00:03:37;11.00;;;9.00;;
16662;SDS011;8445;51.270;9.434;2022-12-07T00:06:05;12.77;;;8.83;;
16662;SDS011;8445;51.270;9.434;2022-12-07T00:08:33;11.87;;;9.03;;
16662;SDS011;8445;51.270;9.434;2022-12-07T00:11:04;13.27;;;8.43;;
16662;SDS011;8445;51.270;9.434;2022-12-07T00:13:32;13.70;;;10.10;;
16662;SDS011;8445;51.270;9.434;2022-12-07T00:16:00;18.77;;;10.77;;
16662;SDS011;8445;51.270;9.434;2022-12-07T00:18:30;16.07;;;10.20;;
16662;SDS011;8445;51.270;9.434;2022-12-07T00:21:02;13.47;;;9.57;;
16662;SDS011;8445;51.270;9.434;2022-12-07T00:23:29;13.43;;;9.57;;
16662;SDS011;8445;51.270;9.434;2022-12-07T00:25:55;12.70;;;10.27;;
16662;SDS011;8445;51.270;9.434;2022-12-07T00:28:21;13.67;;;10.03;;
16662;SDS011;8445;51.270;9.434;2022-12-07T00:30:47;13.13;;;9.70;;
16662;SDS011;8445;51.270;9.434;2022-12-07T00:33:12;12.07;;;10.53;;
16662;SDS011;8445;51.270;9.434;2022-12-07T00:35:37;14.90;;;10.83;;
16662;SDS011;8445;51.270;9.434;2022-12-07T00:38:03;18.37;;;11.47;;
16662;SDS011;8445;51.270;9.434;2022-12-07T00:40:29;15.57;;;11.47;;
16662;SDS011;8445;51.270;9.434;2022-12-07T00:42:55;16.77;;;12.07;;
16662;SDS011;8445;51.270;9.434;2022-12-07T00:45:20;17.10;;;12.03;;
16662;SDS011;8445;51.270;9.434;2022-12-07T00:47:45;17.93;;;12.80;;
16662;SDS011;8445;51.270;9.434;2022-12-07T00:50:11;15.43;;;11.13;;
16662;SDS011;8445;51.270;9.434;2022-12-07T00:52:36;15.07;;;12.27;;
16662;SDS011;8445;51.270;9.434;2022-12-07T00:55:02;16.23;;;11.83;;
16662;SDS011;8445;51.270;9.434;2022-12-07T00:57:27;18.40;;;12.43;;
16662;SDS011;8445;51.270;9.434;2022-12-07T00:59:55;18.87;;;12.77;;
16662;SDS011;8445;51.270;9.434;2022-12-07T01:02:23;15.80;;;11.63;;
16662;SDS011;8445;51.270;9.434;2022-12-07T01:04:49;15.63;;;12.13;;
16662;SDS011;8445;51.270;9.434;2022-12-07T01:07:16;16.93;;;12.27;;
16662;SDS011;8445;51.270;9.434;2022-12-07T01:09:42;17.67;;;13.10;;
16662;SDS011;8445;51.270;9.434;2022-12-07T01:12:08;20.80;;;13.90;;
16662;SDS011;8445;51.270;9.434;2022-12-07T01:14:35;18.63;;;13.93;;
16662;SDS011;8445;51.270;9.434;2022-12-07T01:17:01;18.67;;;12.90;;
16662;SDS011;8445;51.270;9.434;2022-12-07T01:19:28;18.00;;;13.50;;
16662;SDS011;8445;51.270;9.434;2022-12-07T01:21:55;19.73;;;13.63;;
16662;SDS011;8445;51.270;9.434;2022-12-07T01:24:33;18.97;;;14.13;;
16662;SDS011;8445;51.270;9.434;2022-12-07T01:27:10;19.30;;;13.47;;
16662;SDS011;8445;51.270;9.434;2022-12-07T01:29:40;18.43;;;13.90;;
16662;SDS011;8445;51.270;9.434;2022-12-07T01:32:05;22.83;;;15.33;;
16662;SDS011;8445;51.270;9.434;2022-12-07T01:34:31;21.60;;;14.17;;
16662;SDS011;8445;51.270;9.434;2022-12-07T01:36:56;18.77;;;14.17;;
16662;SDS011;8445;51.270;9.434;2022-12-07T01:42:25;19.13;;;13.27;;
16662;SDS011;8445;51.270;9.434;2022-12-07T01:47:48;19.40;;;13.93;;
16662;SDS011;8445;51.270;9.434;2022-12-07T01:50:18;19.70;;;14.13;;
16662;SDS011;8445;51.270;9.434;2022-12-07T01:52:45;22.73;;;15.87;;
16662;SDS011;8445;51.270;9.434;2022-12-07T01:55:14;21.63;;;14.90;;
16662;SDS011;8445;51.270;9.434;2022-12-07T01:57:42;21.00;;;14.10;;
16662;SDS011;8445;51.270;9.434;2022-12-07T02:00:10;19.33;;;14.03;;
16662;SDS011;8445;51.270;9.434;2022-12-07T02:02:54;17.70;;;13.70;;
16662;SDS011;8445;51.270;9.434;2022-12-07T02:05:25;18.53;;;14.37;;
16662;SDS011;8445;51.270;9.434;2022-12-07T02:07:53;20.90;;;15.13;;
16662;SDS011;8445;51.270;9.434;2022-12-07T02:10:27;22.20;;;15.23;;
16662;SDS011;8445;51.270;9.434;2022-12-07T02:15:41;22.10;;;15.13;;
16662;SDS011;8445;51.270;9.434;2022-12-07T02:26:19;21.80;;;14.80;;
16662;SDS011;8445;51.270;9.434;2022-12-07T02:31:32;22.70;;;14.10;;
16662;SDS011;8445;51.270;9.434;2022-12-07T02:34:00;18.33;;;13.97;;
16662;SDS011;8445;51.270;9.434;2022-12-07T02:36:34;17.77;;;13.77;;
16662;SDS011;8445;51.270;9.434;2022-12-07T02:39:11;19.63;;;12.90;;
16662;SDS011;8445;51.270;9.434;2022-12-07T02:41:53;18.07;;;12.30;;
16662;SDS011;8445;51.270;9.434;2022-12-07T02:44:23;20.03;;;13.27;;
16662;SDS011;8445;51.270;9.434;2022-12-07T02:46:59;19.33;;;13.60;;
16662;SDS011;8445;51.270;9.434;2022-12-07T02:49:34;16.93;;;11.57;;
16662;SDS011;8445;51.270;9.434;2022-12-07T02:52:06;17.00;;;12.57;;
16662;SDS011;8445;51.270;9.434;2022-12-07T02:54:35;18.77;;;13.03;;
16662;SDS011;8445;51.270;9.434;2022-12-07T02:57:07;17.63;;;12.50;;
16662;SDS011;8445;51.270;9.434;2022-12-07T03:05:01;19.70;;;12.40;;
16662;SDS011;8445;51.270;9.434;2022-12-07T03:07:42;18.43;;;11.90;;
16662;SDS011;8445;51.270;9.434;2022-12-07T03:13:05;16.17;;;11.23;;
16662;SDS011;8445;51.270;9.434;2022-12-07T03:15:53;15.23;;;11.80;;
16662;SDS011;8445;51.270;9.434;2022-12-07T03:18:28;13.27;;;10.93;;
16662;SDS011;8445;51.270;9.434;2022-12-07T03:20:58;14.73;;;11.30;;
16662;SDS011;8445;51.270;9.434;2022-12-07T03:23:29;16.07;;;12.40;;
16662;SDS011;8445;51.270;9.434;2022-12-07T03:26:00;15.27;;;11.50;;
16662;SDS011;8445;51.270;9.434;2022-12-07T03:28:31;17.87;;;13.37;;
16662;SDS011;8445;51.270;9.434;2022-12-07T03:33:29;15.57;;;11.90;;
16662;SDS011;8445;51.270;9.434;2022-12-07T03:36:05;19.70;;;13.37;;
16662;SDS011;8445;51.270;9.434;2022-12-07T03:38:44;19.20;;;13.07;;
16662;SDS011;8445;51.270;9.434;2022-12-07T03:41:32;17.40;;;12.40;;
16662;SDS011;8445;51.270;9.434;2022-12-07T03:44:00;15.30;;;11.20;;
16662;SDS011;8445;51.270;9.434;2022-12-07T03:49:29;14.03;;;11.13;;
16662;SDS011;8445;51.270;9.434;2022-12-07T03:54:51;15.90;;;11.73;;
16662;SDS011;8445;51.270;9.434;2022-12-07T03:57:24;13.90;;;10.87;;
16662;SDS011;8445;51.270;9.434;2022-12-07T03:59:54;16.50;;;11.70;;
16662;SDS011;8445;51.270;9.434;2022-12-07T04:02:21;12.63;;;10.43;;
16662;SDS011;8445;51.270;9.434;2022-12-07T04:04:48;14.43;;;11.13;;
16662;SDS011;8445;51.270;9.434;2022-12-07T04:07:14;14.20;;;10.10;;
16662;SDS011;8445;51.270;9.434;2022-12-07T04:09:40;12.70;;;10.57;;
16662;SDS011;8445;51.270;9.434;2022-12-07T04:12:05;13.03;;;10.57;;
16662;SDS011;8445;51.270;9.434;2022-12-07T04:14:31;14.50;;;11.27;;
16662;SDS011;8445;51.270;9.434;2022-12-07T04:16:57;16.37;;;11.47;;
16662;SDS011;8445;51.270;9.434;2022-12-07T04:19:24;18.47;;;11.10;;
16662;SDS011;8445;51.270;9.434;2022-12-07T04:21:52;12.43;;;10.60;;
16662;SDS011;8445;51.270;9.434;2022-12-07T04:24:18;12.73;;;10.23;;
16662;SDS011;8445;51.270;9.434;2022-12-07T04:26:45;16.30;;;10.33;;
16662;SDS011;8445;51.270;9.434;2022-12-07T04:29:11;13.43;;;11.03;;
16662;SDS011;8445;51.270;9.434;2022-12-07T04:31:41;13.47;;;10.03;;
16662;SDS011;8445;51.270;9.434;2022-12-07T04:34:07;12.77;;;10.43;;
16662;SDS011;8445;51.270;9.434;2022-12-07T04:36:36;12.97;;;10.83;;
16662;SDS011;8445;51.270;9.434;2022-12-07T04:39:02;15.57;;;10.53;;
16662;SDS011;8445;51.270;9.434;2022-12-07T04:41:29;13.97;;;11.23;;
16662;SDS011;8445;51.270;9.434;2022-12-07T04:44:03;12.83;;;10.60;;
16662;SDS011;8445;51.270;9.434;2022-12-07T04:46:32;14.67;;;10.60;;
16662;SDS011;8445;51.270;9.434;2022-12-07T04:48:58;13.10;;;10.20;;
16662;SDS011;8445;51.270;9.434;2022-12-07T04:51:25;16.67;;;10.70;;
16662;SDS011;8445;51.270;9.434;2022-12-07T04:53:52;14.53;;;10.90;;
16662;SDS011;8445;51.270;9.434;2022-12-07T04:56:18;13.73;;;10.63;;
16662;SDS011;8445;51.270;9.434;2022-12-07T04:58:44;12.40;;;9.90;;
16662;SDS011;8445;51.270;9.434;2022-12-07T05:01:31;16.13;;;10.60;;
16662;SDS011;8445;51.270;9.434;2022-12-07T05:03:58;13.33;;;10.57;;
16662;SDS011;8445;51.270;9.434;2022-12-07T05:06:24;14.73;;;11.50;;
16662;SDS011;8445;51.270;9.434;2022-12-07T05:08:49;14.53;;;10.47;;
16662;SDS011;8445;51.270;9.434;2022-12-07T05:11:15;15.07;;;10.77;;
16662;SDS011;8445;51.270;9.434;2022-12-07T05:14:02;16.77;;;10.97;;
16662;SDS011;8445;51.270;9.434;2022-12-07T05:16:30;12.73;;;10.57;;
16662;SDS011;8445;51.270;9.434;2022-12-07T05:18:55;15.57;;;10.93;;
16662;SDS011;8445;51.270;9.434;2022-12-07T05:21:21;12.10;;;10.13;;
16662;SDS011;8445;51.270;9.434;2022-12-07T05:23:47;11.33;;;9.57;;
16662;SDS011;8445;51.270;9.434;2022-12-07T05:26:20;13.80;;;10.53;;
16662;SDS011;8445;51.270;9.434;2022-12-07T05:28:50;14.30;;;9.40;;
16662;SDS011;8445;51.270;9.434;2022-12-07T05:31:19;13.63;;;9.60;;
16662;SDS011;8445;51.270;9.434;2022-12-07T05:33:47;15.23;;;9.63;;
16662;SDS011;8445;51.270;9.434;2022-12-07T05:36:13;13.20;;;9.07;;
16662;SDS011;8445;51.270;9.434;2022-12-07T05:38:38;13.23;;;9.90;;
16662;SDS011;8445;51.270;9.434;2022-12-07T05:41:04;12.13;;;9.33;;
16662;SDS011;8445;51.270;9.434;2022-12-07T05:43:32;12.50;;;9.50;;
16662;SDS011;8445;51.270;9.434;2022-12-07T05:45:58;13.00;;;9.00;;
16662;SDS011;8445;51.270;9.434;2022-12-07T05:48:24;13.07;;;9.13;;
16662;SDS011;8445;51.270;9.434;2022-12-07T05:50:53;16.83;;;10.33;;
16662;SDS011;8445;51.270;9.434;2022-12-07T05:53:18;15.07;;;9.93;;
16662;SDS011;8445;51.270;9.434;2022-12-07T05:55:44;15.87;;;9.33;;
16662;SDS011;8445;51.270;9.434;2022-12-07T05:58:10;17.90;;;10.37;;
16662;SDS011;8445;51.270;9.434;2022-12-07T06:00:54;15.97;;;9.67;;
16662;SDS011;8445;51.270;9.434;2022-12-07T06:03:21;17.67;;;10.53;;
16662;SDS011;8445;51.270;9.434;2022-12-07T06:05:46;14.87;;;9.87;;
16662;SDS011;8445;51.270;9.434;2022-12-07T06:08:12;16.90;;;10.13;;
16662;SDS011;8445;51.270;9.434;2022-12-07T06:10:41;14.90;;;9.90;;
16662;SDS011;8445;51.270;9.434;2022-12-07T06:13:08;13.97;;;9.43;;
16662;SDS011;8445;51.270;9.434;2022-12-07T06:15:39;15.57;;;10.30;;
16662;SDS011;8445;51.270;9.434;2022-12-07T06:18:05;15.83;;;9.80;;
16662;SDS011;8445;51.270;9.434;2022-12-07T06:20:33;15.20;;;9.37;;
16662;SDS011;8445;51.270;9.434;2022-12-07T06:22:59;14.13;;;9.60;;
16662;SDS011;8445;51.270;9.434;2022-12-07T06:25:24;14.33;;;9.43;;
16662;SDS011;8445;51.270;9.434;2022-12-07T06:27:52;16.47;;;9.40;;
16662;SDS011;8445;51.270;9.434;2022-12-07T06:30:17;17.93;;;9.73;;
16662;SDS011;8445;51.270;9.434;2022-12-07T06:32:43;18.17;;;10.40;;
16662;SDS011;8445;51.270;9.434;2022-12-07T06:35:09;19.37;;;9.50;;
16662;SDS011;8445;51.270;9.434;2022-12-07T06:37:34;17.50;;;9.73;;
16662;SDS011;8445;51.270;9.434;2022-12-07T06:39:59;19.47;;;9.73;;
16662;SDS011;8445;51.270;9.434;2022-12-07T06:42:25;15.13;;;8.47;;
16662;SDS011;8445;51.270;9.434;2022-12-07T06:44:53;18.27;;;8.67;;
16662;SDS011;8445;51.270;9.434;2022-12-07T06:47:19;16.87;;;9.20;;
16662;SDS011;8445;51.270;9.434;2022-12-07T06:49:47;17.13;;;9.53;;
16662;SDS011;8445;51.270;9.434;2022-12-07T06:52:16;16.43;;;9.30;;
16662;SDS011;8445;51.270;9.434;2022-12-07T06:54:46;14.33;;;8.53;;
16662;SDS011;8445;51.270;9.434;2022-12-07T06:57:14;12.83;;;8.30;;
16662;SDS011;8445;51.270;9.434;2022-12-07T06:59:44;18.53;;;8.67;;
16662;SDS011;8445;51.270;9.434;2022-12-07T07:02:13;17.17;;;9.17;;
16662;SDS011;8445;51.270;9.434;2022-12-07T07:04:43;15.70;;;8.23;;
16662;SDS011;8445;51.270;9.434;2022-12-07T07:07:12;15.10;;;8.50;;
16662;SDS011;8445;51.270;9.434;2022-12-07T07:09:41;11.70;;;7.63;;
16662;SDS011;8445;51.270;9.434;2022-12-07T07:12:07;17.93;;;9.77;;
16662;SDS011;8445;51.270;9.434;2022-12-07T07:14:32;17.20;;;8.70;;
16662;SDS011;8445;51.270;9.434;2022-12-07T07:16:58;15.83;;;8.17;;
16662;SDS011;8445;51.270;9.434;2022-12-07T07:19:23;18.07;;;7.77;;
16662;SDS011;8445;51.270;9.434;2022-12-07T07:21:49;11.70;;;7.40;;
16662;SDS011;8445;51.270;9.434;2022-12-07T07:24:14;17.60;;;9.03;;
16662;SDS011;8445;51.270;9.434;2022-12-07T07:26:39;14.03;;;7.53;;
16662;SDS011;8445;51.270;9.434;2022-12-07T07:29:05;11.57;;;8.03;;
16662;SDS011;8445;51.270;9.434;2022-12-07T07:31:30;13.23;;;8.83;;
16662;SDS011;8445;51.270;9.434;2022-12-07T07:33:56;14.77;;;8.83;;
16662;SDS011;8445;51.270;9.434;2022-12-07T07:36:21;13.97;;;7.83;;
16662;SDS011;8445;51.270;9.434;2022-12-07T07:38:46;10.97;;;7.93;;
16662;SDS011;8445;51.270;9.434;2022-12-07T07:41:12;12.27;;;7.73;;
16662;SDS011;8445;51.270;9.434;2022-12-07T07:43:38;17.20;;;7.33;;
16662;SDS011;8445;51.270;9.434;2022-12-07T07:46:08;11.83;;;8.13;;
16662;SDS011;8445;51.270;9.434;2022-12-07T07:48:37;13.57;;;7.27;;
16662;SDS011;8445;51.270;9.434;2022-12-07T07:51:07;13.47;;;7.80;;
16662;SDS011;8445;51.270;9.434;2022-12-07T07:53:37;11.17;;;7.10;;
16662;SDS011;8445;51.270;9.434;2022-12-07T07:56:06;12.60;;;7.50;;
16662;SDS011;8445;51.270;9.434;2022-12-07T07:58:31;15.63;;;7.87;;
16662;SDS011;8445;51.270;9.434;2022-12-07T08:01:04;17.47;;;7.50;;
16662;SDS011;8445;51.270;9.434;2022-12-07T08:03:31;16.03;;;7.63;;
16662;SDS011;8445;51.270;9.434;2022-12-07T08:05:56;8.73;;;7.33;;
16662;SDS011;8445;51.270;9.434;2022-12-07T08:08:22;9.77;;;7.60;;
16662;SDS011;8445;51.270;9.434;2022-12-07T08:10:47;13.03;;;6.93;;
16662;SDS011;8445;51.270;9.434;2022-12-07T08:13:15;10.83;;;7.17;;
16662;SDS011;8445;51.270;9.434;2022-12-07T08:15:41;9.90;;;6.30;;
16662;SDS011;8445;51.270;9.434;2022-12-07T08:18:09;13.53;;;7.50;;
16662;SDS011;8445;51.270;9.434;2022-12-07T08:20:35;8.83;;;5.87;;
16662;SDS011;8445;51.270;9.434;2022-12-07T08:23:01;6.93;;;5.40;;
16662;SDS011;8445;51.270;9.434;2022-12-07T08:25:27;10.63;;;6.27;;
16662;SDS011;8445;51.270;9.434;2022-12-07T08:27:53;8.37;;;5.63;;
16662;SDS011;8445;51.270;9.434;2022-12-07T08:30:19;10.17;;;6.10;;
16662;SDS011;8445;51.270;9.434;2022-12-07T08:32:45;13.27;;;6.23;;
16662;SDS011;8445;51.270;9.434;2022-12-07T08:35:14;7.40;;;5.60;;
16662;SDS011;8445;51.270;9.434;2022-12-07T08:37:40;8.93;;;5.60;;
16662;SDS011;8445;51.270;9.434;2022-12-07T08:40:07;10.23;;;5.10;;
16662;SDS011;8445;51.270;9.434;2022-12-07T08:42:34;7.83;;;4.90;;
16662;SDS011;8445;51.270;9.434;2022-12-07T08:45:09;6.60;;;5.30;;
16662;SDS011;8445;51.270;9.434;2022-12-07T08:48:12;6.83;;;5.00;;
16662;SDS011;8445;51.270;9.434;2022-12-07T08:50:33;8.20;;;5.00;;
16662;SDS011;8445;51.270;9.434;2022-12-07T08:53:01;5.87;;;4.27;;
16662;SDS011;8445;51.270;9.434;2022-12-07T08:55:29;9.37;;;5.37;;
16662;SDS011;8445;51.270;9.434;2022-12-07T08:57:57;8.63;;;5.07;;
16662;SDS011;8445;51.270;9.434;2022-12-07T09:00:24;11.37;;;5.40;;
16662;SDS011;8445;51.270;9.434;2022-12-07T09:02:51;9.77;;;5.27;;
16662;SDS011;8445;51.270;9.434;2022-12-07T09:05:16;9.87;;;5.23;;
16662;SDS011;8445;51.270;9.434;2022-12-07T09:07:43;12.30;;;5.50;;
16662;SDS011;8445;51.270;9.434;2022-12-07T09:10:13;8.87;;;5.33;;
16662;SDS011;8445;51.270;9.434;2022-12-07T09:12:38;6.97;;;5.00;;
16662;SDS011;8445;51.270;9.434;2022-12-07T09:15:05;10.00;;;4.80;;
16662;SDS011;8445;51.270;9.434;2022-12-07T09:17:33;10.57;;;4.93;;
16662;SDS011;8445;51.270;9.434;2022-12-07T09:20:00;6.53;;;4.33;;
16662;SDS011;8445;51.270;9.434;2022-12-07T09:22:30;6.93;;;4.70;;
16662;SDS011;8445;51.270;9.434;2022-12-07T09:24:56;9.80;;;4.37;;
16662;SDS011;8445;51.270;9.434;2022-12-07T09:27:25;8.13;;;4.23;;
16662;SDS011;8445;51.270;9.434;2022-12-07T09:29:51;7.87;;;4.43;;
16662;SDS011;8445;51.270;9.434;2022-12-07T09:32:17;7.33;;;3.83;;
16662;SDS011;8445;51.270;9.434;2022-12-07T09:34:43;9.03;;;4.30;;
16662;SDS011;8445;51.270;9.434;2022-12-07T09:37:09;5.00;;;3.60;;
16662;SDS011;8445;51.270;9.434;2022-12-07T09:39:37;9.37;;;4.17;;
16662;SDS011;8445;51.270;9.434;2022-12-07T09:42:03;6.33;;;3.70;;
16662;SDS011;8445;51.270;9.434;2022-12-07T09:44:30;7.27;;;3.43;;
16662;SDS011;8445;51.270;9.434;2022-12-07T09:47:00;9.27;;;4.47;;
16662;SDS011;8445;51.270;9.434;2022-12-07T09:49:28;9.00;;;4.03;;
16662;SDS011;8445;51.270;9.434;2022-12-07T09:52:03;5.27;;;3.57;;
16662;SDS011;8445;51.270;9.434;2022-12-07T09:54:45;7.30;;;3.50;;
16662;SDS011;8445;51.270;9.434;2022-12-07T09:57:13;5.30;;;3.40;;
16662;SDS011;8445;51.270;9.434;2022-12-07T09:59:39;9.77;;;3.77;;
16662;SDS011;8445;51.270;9.434;2022-12-07T10:02:21;6.20;;;2.90;;
16662;SDS011;8445;51.270;9.434;2022-12-07T10:04:48;4.67;;;3.10;;
16662;SDS011;8445;51.270;9.434;2022-12-07T10:07:13;7.43;;;2.70;;
16662;SDS011;8445;51.270;9.434;2022-12-07T10:09:39;6.03;;;2.90;;
16662;SDS011;8445;51.270;9.434;2022-12-07T10:12:08;4.50;;;3.30;;
16662;SDS011;8445;51.270;9.434;2022-12-07T10:14:53;4.87;;;2.77;;
16662;SDS011;8445;51.270;9.434;2022-12-07T10:17:29;4.13;;;2.70;;
16662;SDS011;8445;51.270;9.434;2022-12-07T10:20:19;4.20;;;2.57;;
16662;SDS011;8445;51.270;9.434;2022-12-07T10:22:57;3.97;;;2.53;;
16662;SDS011;8445;51.270;9.434;2022-12-07T10:25:34;6.53;;;2.67;;
16662;SDS011;8445;51.270;9.434;2022-12-07T10:30:32;6.97;;;2.70;;
16662;SDS011;8445;51.270;9.434;2022-12-07T10:33:30;5.43;;;2.27;;
16662;SDS011;8445;51.270;9.434;2022-12-07T10:36:14;7.60;;;2.77;;
16662;SDS011;8445;51.270;9.434;2022-12-07T10:39:03;4.43;;;2.83;;
16662;SDS011;8445;51.270;9.434;2022-12-07T10:44:22;5.70;;;2.53;;
16662;SDS011;8445;51.270;9.434;2022-12-07T10:58:16;6.80;;;3.10;;
16662;SDS011;8445;51.270;9.434;2022-12-07T11:01:03;4.50;;;2.17;;
16662;SDS011;8445;51.270;9.434;2022-12-07T11:09:36;10.43;;;2.50;;
16662;SDS011;8445;51.270;9.434;2022-12-07T11:12:08;9.93;;;2.40;;
16662;SDS011;8445;51.270;9.434;2022-12-07T11:15:04;3.47;;;1.97;;
16662;SDS011;8445;51.270;9.434;2022-12-07T11:17:56;6.67;;;2.67;;
16662;SDS011;8445;51.270;9.434;2022-12-07T11:20:55;4.20;;;2.07;;
16662;SDS011;8445;51.270;9.434;2022-12-07T11:23:40;6.97;;;2.60;;
16662;SDS011;8445;51.270;9.434;2022-12-07T11:37:35;5.43;;;2.83;;
16662;SDS011;8445;51.270;9.434;2022-12-07T11:40:13;6.47;;;2.30;;
16662;SDS011;8445;51.270;9.434;2022-12-07T11:43:11;4.97;;;1.90;;
16662;SDS011;8445;51.270;9.434;2022-12-07T11:45:43;4.13;;;1.93;;
16662;SDS011;8445;51.270;9.434;2022-12-07T11:48:15;4.17;;;2.03;;
16662;SDS011;8445;51.270;9.434;2022-12-07T11:50:48;4.07;;;2.30;;
16662;SDS011;8445;51.270;9.434;2022-12-07T11:56:11;5.60;;;2.60;;
16662;SDS011;8445;51.270;9.434;2022-12-07T12:06:36;8.00;;;2.97;;
16662;SDS011;8445;51.270;9.434;2022-12-07T12:09:15;7.30;;;2.27;;
16662;SDS011;8445;51.270;9.434;2022-12-07T12:17:24;7.67;;;2.27;;
16662;SDS011;8445;51.270;9.434;2022-12-07T12:20:00;5.43;;;2.07;;
16662;SDS011;8445;51.270;9.434;2022-12-07T12:22:35;3.97;;;2.10;;
16662;SDS011;8445;51.270;9.434;2022-12-07T12:25:05;4.37;;;2.40;;
16662;SDS011;8445;51.270;9.434;2022-12-07T12:27:40;6.33;;;2.10;;
16662;SDS011;8445;51.270;9.434;2022-12-07T12:33:04;3.63;;;2.00;;
16662;SDS011;8445;51.270;9.434;2022-12-07T12:35:38;6.00;;;2.50;;
16662;SDS011;8445;51.270;9.434;2022-12-07T12:40:55;3.50;;;2.20;;
16662;SDS011;8445;51.270;9.434;2022-12-07T12:48:56;7.57;;;2.00;;
16662;SDS011;8445;51.270;9.434;2022-12-07T12:54:57;5.33;;;1.80;;
16662;SDS011;8445;51.270;9.434;2022-12-07T12:57:29;4.50;;;1.83;;
16662;SDS011;8445;51.270;9.434;2022-12-07T12:59:57;6.37;;;1.93;;
16662;SDS011;8445;51.270;9.434;2022-12-07T13:02:28;5.83;;;1.97;;
16662;SDS011;8445;51.270;9.434;2022-12-07T13:15:49;4.17;;;2.30;;
16662;SDS011;8445;51.270;9.434;2022-12-07T13:23:26;7.53;;;2.67;;
16662;SDS011;8445;51.270;9.434;2022-12-07T13:28:21;6.40;;;2.67;;
16662;SDS011;8445;51.270;9.434;2022-12-07T13:30:58;5.20;;;2.23;;
16662;SDS011;8445;51.270;9.434;2022-12-07T13:33:29;7.43;;;2.67;;
16662;SDS011;8445;51.270;9.434;2022-12-07T13:35:55;6.27;;;3.00;;
16662;SDS011;8445;51.270;9.434;2022-12-07T13:38:32;5.43;;;2.77;;
16662;SDS011;8445;51.270;9.434;2022-12-07T13:41:05;6.87;;;3.27;;
16662;SDS011;8445;51.270;9.434;2022-12-07T13:43:49;8.00;;;2.63;;
16662;SDS011;8445;51.270;9.434;2022-12-07T13:46:17;5.83;;;2.27;;
16662;SDS011;8445;51.270;9.434;2022-12-07T13:48:47;4.93;;;2.37;;
16662;SDS011;8445;51.270;9.434;2022-12-07T13:53:52;7.23;;;2.90;;
16662;SDS011;8445;51.270;9.434;2022-12-07T13:56:21;7.33;;;3.33;;
16662;SDS011;8445;51.270;9.434;2022-12-07T13:58:50;10.63;;;3.00;;
16662;SDS011;8445;51.270;9.434;2022-12-07T14:01:16;7.03;;;2.70;;
16662;SDS011;8445;51.270;9.434;2022-12-07T14:03:42;4.67;;;2.80;;
16662;SDS011;8445;51.270;9.434;2022-12-07T14:06:24;7.13;;;2.60;;
16662;SDS011;8445;51.270;9.434;2022-12-07T14:11:45;5.00;;;2.50;;
16662;SDS011;8445;51.270;9.434;2022-12-07T14:14:17;5.93;;;2.63;;
16662;SDS011;8445;51.270;9.434;2022-12-07T14:16:56;9.30;;;2.70;;
16662;SDS011;8445;51.270;9.434;2022-12-07T14:19:46;6.00;;;2.50;;
16662;SDS011;8445;51.270;9.434;2022-12-07T14:24:49;7.27;;;2.50;;
16662;SDS011;8445;51.270;9.434;2022-12-07T14:27:19;4.63;;;2.47;;
16662;SDS011;8445;51.270;9.434;2022-12-07T14:29:47;6.33;;;2.60;;
16662;SDS011;8445;51.270;9.434;2022-12-07T14:32:26;4.57;;;2.30;;
16662;SDS011;8445;51.270;9.434;2022-12-07T14:34:55;4.40;;;2.40;;
16662;SDS011;8445;51.270;9.434;2022-12-07T14:37:29;5.07;;;2.60;;
16662;SDS011;8445;51.270;9.434;2022-12-07T14:39:55;5.57;;;2.80;;
16662;SDS011;8445;51.270;9.434;2022-12-07T14:42:21;6.53;;;3.00;;
16662;SDS011;8445;51.270;9.434;2022-12-07T14:44:49;6.07;;;2.70;;
16662;SDS011;8445;51.270;9.434;2022-12-07T14:47:14;4.07;;;2.43;;
16662;SDS011;8445;51.270;9.434;2022-12-07T14:49:40;4.70;;;2.77;;
16662;SDS011;8445;51.270;9.434;2022-12-07T14:52:06;10.67;;;4.63;;
16662;SDS011;8445;51.270;9.434;2022-12-07T14:54:40;9.00;;;4.07;;
16662;SDS011;8445;51.270;9.434;2022-12-07T14:57:08;10.80;;;3.53;;
16662;SDS011;8445;51.270;9.434;2022-12-07T14:59:34;5.83;;;2.90;;
16662;SDS011;8445;51.270;9.434;2022-12-07T15:01:59;6.70;;;3.20;;
16662;SDS011;8445;51.270;9.434;2022-12-07T15:04:25;4.17;;;3.07;;
16662;SDS011;8445;51.270;9.434;2022-12-07T15:06:54;5.13;;;2.93;;
16662;SDS011;8445;51.270;9.434;2022-12-07T15:09:24;3.83;;;2.57;;
16662;SDS011;8445;51.270;9.434;2022-12-07T15:11:49;8.33;;;3.30;;
16662;SDS011;8445;51.270;9.434;2022-12-07T15:14:15;6.57;;;3.20;;
16662;SDS011;8445;51.270;9.434;2022-12-07T15:16:41;4.97;;;3.40;;
16662;SDS011;8445;51.270;9.434;2022-12-07T15:19:17;9.07;;;3.60;;
16662;SDS011;8445;51.270;9.434;2022-12-07T15:21:47;6.33;;;3.47;;
16662;SDS011;8445;51.270;9.434;2022-12-07T15:24:13;9.17;;;3.70;;
16662;SDS011;8445;51.270;9.434;2022-12-07T15:26:39;3.97;;;3.40;;
16662;SDS011;8445;51.270;9.434;2022-12-07T15:29:05;7.33;;;3.80;;
16662;SDS011;8445;51.270;9.434;2022-12-07T15:31:31;6.47;;;3.90;;
16662;SDS011;8445;51.270;9.434;2022-12-07T15:33:57;6.90;;;3.70;;
16662;SDS011;8445;51.270;9.434;2022-12-07T15:36:25;9.80;;;4.10;;
16662;SDS011;8445;51.270;9.434;2022-12-07T15:38:52;12.10;;;5.00;;
16662;SDS011;8445;51.270;9.434;2022-12-07T15:41:19;8.77;;;4.93;;
16662;SDS011;8445;51.270;9.434;2022-12-07T15:43:45;10.30;;;4.83;;
16662;SDS011;8445;51.270;9.434;2022-12-07T15:46:31;8.47;;;4.37;;
16662;SDS011;8445;51.270;9.434;2022-12-07T15:48:58;5.53;;;4.50;;
16662;SDS011;8445;51.270;9.434;2022-12-07T15:51:24;6.20;;;5.30;;
16662;SDS011;8445;51.270;9.434;2022-12-07T15:53:50;7.43;;;5.37;;
16662;SDS011;8445;51.270;9.434;2022-12-07T15:56:15;6.07;;;4.50;;
16662;SDS011;8445;51.270;9.434;2022-12-07T15:58:41;7.03;;;5.30;;
16662;SDS011;8445;51.270;9.434;2022-12-07T16:01:12;9.87;;;5.63;;
16662;SDS011;8445;51.270;9.434;2022-12-07T16:03:39;13.77;;;5.63;;
16662;SDS011;8445;51.270;9.434;2022-12-07T16:06:05;10.50;;;5.43;;
16662;SDS011;8445;51.270;9.434;2022-12-07T16:08:31;10.63;;;5.13;;
16662;SDS011;8445;51.270;9.434;2022-12-07T16:10:57;7.77;;;5.37;;
16662;SDS011;8445;51.270;9.434;2022-12-07T16:13:22;7.67;;;4.90;;
16662;SDS011;8445;51.270;9.434;2022-12-07T16:15:48;8.00;;;4.57;;
16662;SDS011;8445;51.270;9.434;2022-12-07T16:18:13;10.23;;;5.30;;
16662;SDS011;8445;51.270;9.434;2022-12-07T16:20:39;11.40;;;5.00;;
16662;SDS011;8445;51.270;9.434;2022-12-07T16:23:05;9.67;;;5.20;;
16662;SDS011;8445;51.270;9.434;2022-12-07T16:25:31;8.90;;;4.80;;
16662;SDS011;8445;51.270;9.434;2022-12-07T16:27:56;10.30;;;5.03;;
16662;SDS011;8445;51.270;9.434;2022-12-07T16:30:22;7.67;;;5.17;;
16662;SDS011;8445;51.270;9.434;2022-12-07T16:32:47;7.90;;;4.77;;
16662;SDS011;8445;51.270;9.434;2022-12-07T16:35:13;8.70;;;4.80;;
16662;SDS011;8445;51.270;9.434;2022-12-07T16:37:38;6.23;;;4.53;;
16662;SDS011;8445;51.270;9.434;2022-12-07T16:40:06;5.83;;;4.70;;
16662;SDS011;8445;51.270;9.434;2022-12-07T16:42:33;7.57;;;4.40;;
16662;SDS011;8445;51.270;9.434;2022-12-07T16:44:59;11.17;;;4.87;;
16662;SDS011;8445;51.270;9.434;2022-12-07T16:47:25;7.37;;;4.23;;
16662;SDS011;8445;51.270;9.434;2022-12-07T16:49:51;10.40;;;4.80;;
16662;SDS011;8445;51.270;9.434;2022-12-07T16:52:17;8.03;;;4.67;;
16662;SDS011;8445;51.270;9.434;2022-12-07T16:54:43;9.73;;;4.60;;
16662;SDS011;8445;51.270;9.434;2022-12-07T16:57:09;12.57;;;6.43;;
16662;SDS011;8445;51.270;9.434;2022-12-07T16:59:35;10.80;;;6.57;;
16662;SDS011;8445;51.270;9.434;2022-12-07T17:02:01;6.50;;;4.97;;
16662;SDS011;8445;51.270;9.434;2022-12-07T17:04:27;9.80;;;5.83;;
16662;SDS011;8445;51.270;9.434;2022-12-07T17:06:53;9.63;;;5.47;;
16662;SDS011;8445;51.270;9.434;2022-12-07T17:09:18;6.87;;;4.87;;
16662;SDS011;8445;51.270;9.434;2022-12-07T17:11:44;11.17;;;5.17;;